createdAt,value
2024-03-13T00:00:17.845Z,97448.75
2024-03-13T00:00:49.816Z,97446.56
2024-03-13T00:01:22.469Z,97443.78
2024-03-13T00:01:54.668Z,97450.38
2024-03-13T00:02:26.527Z,97439.53
2024-03-13T00:02:59.813Z,97445.31
2024-03-13T00:03:33.372Z,97450.97
2024-03-13T00:04:06.482Z,97445.19
2024-03-13T00:04:47.364Z,97449.84
2024-03-13T00:05:22.395Z,97452.66
2024-03-13T00:05:57.016Z,97449.94
2024-03-13T00:06:29.333Z,97454.84
2024-03-13T00:07:02.276Z,97449.38
2024-03-13T00:07:34.127Z,97450.53
2024-03-13T00:08:08.330Z,97460.94
2024-03-13T00:08:41.049Z,97450.25
2024-03-13T00:09:13.642Z,97454.13
2024-03-13T00:09:47.034Z,97451.97
2024-03-13T00:10:19.369Z,97447.22
2024-03-13T00:10:51.781Z,97452.50
2024-03-13T00:11:27.035Z,97453.69
2024-03-13T00:11:58.893Z,97455.97
2024-03-13T00:12:31.684Z,97447.75
2024-03-13T00:13:03.565Z,97448.94
2024-03-13T00:13:35.553Z,97446.97
2024-03-13T00:14:07.679Z,97445.97
2024-03-13T00:14:39.523Z,97447.97
2024-03-13T00:15:12.360Z,97450.97
2024-03-13T00:15:45.633Z,97448.81
2024-03-13T00:16:17.569Z,97451.31
2024-03-13T00:16:49.432Z,97451.31
2024-03-13T00:17:21.601Z,97457.47
2024-03-13T00:17:53.504Z,97456.06
2024-03-13T00:18:25.450Z,97454.16
2024-03-13T00:18:57.330Z,97459.41
2024-03-13T00:19:29.219Z,97451.53
2024-03-13T00:20:01.197Z,97449.88
2024-03-13T00:20:33.090Z,97447.81
2024-03-13T00:21:05.616Z,97447.56
2024-03-13T00:21:40.150Z,97451.53
2024-03-13T00:22:13.992Z,97446.16
2024-03-13T00:22:46.718Z,97453.75
2024-03-13T00:23:19.580Z,97451.19
2024-03-13T00:23:53.789Z,97452.28
2024-03-13T00:24:25.670Z,97452.88
2024-03-13T00:24:58.297Z,97451.69
2024-03-13T00:25:30.493Z,97452.16
2024-03-13T00:26:02.340Z,97450.97
2024-03-13T00:26:34.951Z,97448.81
2024-03-13T00:27:07.010Z,97456.44
2024-03-13T00:27:40.646Z,97448.09
2024-03-13T00:28:12.720Z,97451.69
2024-03-13T00:28:44.565Z,97453.22
2024-03-13T00:29:16.367Z,97451.19
2024-03-13T00:29:49.507Z,97440.13
2024-03-13T00:30:22.119Z,97455.97
2024-03-13T00:30:54.011Z,97446.19
2024-03-13T00:31:25.929Z,97450.84
2024-03-13T00:31:57.791Z,97448.78
2024-03-13T00:32:29.664Z,97449.41
2024-03-13T00:33:01.607Z,97451.97
2024-03-13T00:33:33.460Z,97451.19
2024-03-13T00:34:07.613Z,97457.75
2024-03-13T00:34:39.872Z,97452.81
2024-03-13T00:35:14.574Z,97455.69
2024-03-13T00:35:46.413Z,97447.09
2024-03-13T00:36:20.444Z,97457.44
2024-03-13T00:36:52.329Z,97448.94
2024-03-13T00:37:24.454Z,97450.00
2024-03-13T00:37:56.453Z,97443.94
2024-03-13T00:38:28.249Z,97453.25
2024-03-13T00:39:00.119Z,97445.84
2024-03-13T00:39:32.249Z,97447.50
2024-03-13T00:40:07.636Z,97448.25
2024-03-13T00:40:40.362Z,97452.88
2024-03-13T00:41:12.222Z,97453.72
2024-03-13T00:41:44.765Z,97450.00
2024-03-13T00:42:17.455Z,97456.44
2024-03-13T00:42:49.284Z,97452.75
2024-03-13T00:43:22.067Z,97452.06
2024-03-13T00:43:54.587Z,97454.19
2024-03-13T00:44:26.522Z,97459.34
2024-03-13T00:44:58.992Z,97452.56
2024-03-13T00:45:30.827Z,97447.16
2024-03-13T00:46:02.745Z,97450.56
2024-03-13T00:46:35.098Z,97458.56
2024-03-13T00:47:07.955Z,97449.19
2024-03-13T00:47:40.072Z,97448.09
2024-03-13T00:48:12.401Z,97456.44
2024-03-13T00:48:44.350Z,97450.38
2024-03-13T00:49:16.638Z,97451.91
2024-03-13T00:49:48.481Z,97456.56
2024-03-13T00:50:20.340Z,97445.00
2024-03-13T00:50:52.144Z,97450.66
2024-03-13T00:51:24.461Z,97445.84
2024-03-13T00:51:56.318Z,97444.88
2024-03-13T00:52:29.984Z,97444.53
2024-03-13T00:53:02.301Z,97453.03
2024-03-13T00:53:34.111Z,97443.72
2024-03-13T00:54:06.057Z,97454.56
2024-03-13T00:54:38.153Z,97449.69
2024-03-13T00:55:12.023Z,97450.41
2024-03-13T00:55:44.180Z,97450.97
2024-03-13T00:56:17.053Z,97446.84
2024-03-13T00:56:49.529Z,97452.66
2024-03-13T00:57:21.497Z,97438.38
2024-03-13T00:57:53.334Z,97445.38
2024-03-13T00:58:25.283Z,97445.59
2024-03-13T00:58:57.406Z,97445.47
2024-03-13T00:59:30.826Z,97449.56
2024-03-13T01:00:05.425Z,97447.91
2024-03-13T01:00:38.272Z,97451.47
2024-03-13T01:01:12.408Z,97448.84
2024-03-13T01:01:49.631Z,97445.72
2024-03-13T01:02:24.267Z,97442.91
2024-03-13T01:02:56.220Z,97445.00
2024-03-13T01:03:29.452Z,97442.50
2024-03-13T01:04:01.339Z,97442.88
2024-03-13T01:04:34.339Z,97444.56
2024-03-13T01:05:06.299Z,97454.19
2024-03-13T01:05:38.188Z,97441.81
2024-03-13T01:06:09.992Z,97431.34
2024-03-13T01:06:42.246Z,97444.34
2024-03-13T01:07:14.130Z,97437.16
2024-03-13T01:07:50.111Z,97440.75
2024-03-13T01:08:22.244Z,97439.78
2024-03-13T01:08:54.071Z,97440.03
2024-03-13T01:09:25.940Z,97430.63
2024-03-13T01:09:57.808Z,97434.44
2024-03-13T01:10:29.669Z,97440.47
2024-03-13T01:11:02.067Z,97440.75
2024-03-13T01:11:35.283Z,97432.78
2024-03-13T01:12:08.140Z,97438.50
2024-03-13T01:12:40.888Z,97432.66
2024-03-13T01:13:12.805Z,97432.19
2024-03-13T01:13:44.697Z,97429.56
2024-03-13T01:14:21.113Z,97436.16
2024-03-13T01:14:52.979Z,97430.88
2024-03-13T01:15:25.181Z,97434.25
2024-03-13T01:15:57.119Z,97437.66
2024-03-13T01:16:29.031Z,97442.91
2024-03-13T01:17:02.687Z,97433.41
2024-03-13T01:17:35.848Z,97437.53
2024-03-13T01:18:10.730Z,97436.97
2024-03-13T01:18:42.884Z,97430.66
2024-03-13T01:19:14.808Z,97438.66
2024-03-13T01:19:46.725Z,97434.47
2024-03-13T01:20:20.177Z,97431.16
2024-03-13T01:20:51.988Z,97437.34
2024-03-13T01:21:23.787Z,97427.66
2024-03-13T01:22:06.763Z,97435.28
2024-03-13T01:22:41.106Z,97430.78
2024-03-13T01:23:12.912Z,97428.84
2024-03-13T01:23:44.818Z,97427.78
2024-03-13T01:24:18.212Z,97420.50
2024-03-13T01:24:50.065Z,97428.72
2024-03-13T01:25:21.939Z,97411.84
2024-03-13T01:25:55.723Z,97427.56
2024-03-13T01:26:27.692Z,97427.19
2024-03-13T01:27:00.115Z,97425.41
2024-03-13T01:27:31.964Z,97424.31
2024-03-13T01:28:04.087Z,97421.00
2024-03-13T01:28:39.468Z,97428.63
2024-03-13T01:29:11.313Z,97430.63
2024-03-13T01:29:47.546Z,97422.19
2024-03-13T01:30:19.658Z,97429.47
2024-03-13T01:30:51.502Z,97425.91
2024-03-13T01:31:24.949Z,97434.59
2024-03-13T01:31:59.928Z,97426.38
2024-03-13T01:32:31.959Z,97432.81
2024-03-13T01:33:04.092Z,97428.06
2024-03-13T01:33:42.178Z,97433.53
2024-03-13T01:34:14.050Z,97437.81
2024-03-13T01:34:47.867Z,97429.38
2024-03-13T01:35:20.589Z,97438.06
2024-03-13T01:35:52.955Z,97436.28
2024-03-13T01:36:44.869Z,97433.28
2024-03-13T01:37:35.280Z,97432.56
2024-03-13T01:38:07.142Z,97431.16
2024-03-13T01:38:39.071Z,97435.19
2024-03-13T01:39:11.091Z,97421.94
2024-03-13T01:39:43.027Z,97430.06
2024-03-13T01:40:20.488Z,97423.25
2024-03-13T01:41:11.062Z,97426.78
2024-03-13T01:42:03.581Z,97418.72
2024-03-13T01:42:54.066Z,97417.19
2024-03-13T01:43:44.675Z,97426.00
2024-03-13T01:44:34.834Z,97424.25
2024-03-13T01:45:49.472Z,97419.91
2024-03-13T01:46:40.643Z,97422.94
2024-03-13T01:47:35.582Z,97419.84
2024-03-13T01:48:43.457Z,97421.88
2024-03-13T01:49:39.008Z,97421.25
2024-03-13T01:50:37.057Z,97412.09
2024-03-13T01:51:27.418Z,97419.84
2024-03-13T01:52:24.106Z,97417.38
2024-03-13T01:53:18.719Z,97420.91
2024-03-13T01:54:09.184Z,97418.75
2024-03-13T01:54:52.206Z,97420.06
2024-03-13T01:55:29.839Z,97425.66
2024-03-13T01:56:22.238Z,97416.03
2024-03-13T01:57:01.893Z,97422.56
2024-03-13T01:57:56.975Z,97430.91
2024-03-13T01:58:41.217Z,97419.25
2024-03-13T01:59:24.855Z,97428.03
2024-03-13T02:00:16.381Z,97424.00
2024-03-13T02:01:06.984Z,97424.25
2024-03-13T02:01:57.453Z,97423.88
2024-03-13T02:02:29.626Z,97424.50
2024-03-13T02:03:01.896Z,97428.41
2024-03-13T02:03:33.790Z,97421.16
2024-03-13T02:04:06.131Z,97421.84
2024-03-13T02:04:38.017Z,97421.63
2024-03-13T02:05:10.398Z,97426.75
2024-03-13T02:05:46.165Z,97424.16
2024-03-13T02:06:18.250Z,97419.47
2024-03-13T02:06:51.497Z,97435.22
2024-03-13T02:07:25.019Z,97429.72
2024-03-13T02:07:56.999Z,97428.66
2024-03-13T02:08:33.623Z,97423.63
2024-03-13T02:09:07.399Z,97431.75
2024-03-13T02:09:39.317Z,97426.03
2024-03-13T02:10:11.492Z,97433.16
2024-03-13T02:10:43.587Z,97428.88
2024-03-13T02:11:15.485Z,97423.75
2024-03-13T02:11:47.590Z,97435.19
2024-03-13T02:12:19.473Z,97435.31
2024-03-13T02:13:04.563Z,97431.63
2024-03-13T02:13:40.203Z,97441.28
2024-03-13T02:14:12.002Z,97437.09
2024-03-13T02:14:44.172Z,97437.66
2024-03-13T02:15:16.014Z,97437.22
2024-03-13T02:15:47.980Z,97427.91
2024-03-13T02:16:19.895Z,97433.41
2024-03-13T02:16:53.617Z,97432.47
2024-03-13T02:17:25.822Z,97430.78
2024-03-13T02:18:03.546Z,97427.66
2024-03-13T02:18:36.982Z,97434.25
2024-03-13T02:19:09.110Z,97425.66
2024-03-13T02:19:41.496Z,97433.06
2024-03-13T02:20:16.643Z,97430.88
2024-03-13T02:20:50.209Z,97422.78
2024-03-13T02:21:22.047Z,97433.50
2024-03-13T02:21:59.241Z,97432.91
2024-03-13T02:22:31.745Z,97417.41
2024-03-13T02:23:07.063Z,97430.03
2024-03-13T02:23:40.415Z,97423.47
2024-03-13T02:24:13.181Z,97422.19
2024-03-13T02:24:45.568Z,97422.19
2024-03-13T02:25:17.478Z,97423.72
2024-03-13T02:25:52.600Z,97415.75
2024-03-13T02:26:26.094Z,97421.81
2024-03-13T02:26:58.063Z,97420.81
2024-03-13T02:27:29.909Z,97414.41
2024-03-13T02:28:02.326Z,97426.66
2024-03-13T02:28:35.898Z,97425.03
2024-03-13T02:29:08.346Z,97415.19
2024-03-13T02:29:44.110Z,97421.81
2024-03-13T02:30:15.979Z,97423.13
2024-03-13T02:30:48.766Z,97419.56
2024-03-13T02:31:21.052Z,97418.81
2024-03-13T02:31:53.202Z,97416.09
2024-03-13T02:32:25.034Z,97415.75
2024-03-13T02:32:56.913Z,97410.13
2024-03-13T02:33:29.559Z,97416.34
2024-03-13T02:34:01.480Z,97412.59
2024-03-13T02:34:33.481Z,97421.56
2024-03-13T02:35:05.497Z,97415.91
2024-03-13T02:35:37.332Z,97412.66
2024-03-13T02:36:09.664Z,97427.28
2024-03-13T02:36:41.477Z,97420.63
2024-03-13T02:37:13.372Z,97421.91
2024-03-13T02:37:45.586Z,97429.44
2024-03-13T02:38:17.420Z,97423.38
2024-03-13T02:38:50.723Z,97411.69
2024-03-13T02:39:22.605Z,97421.56
2024-03-13T02:39:54.508Z,97414.31
2024-03-13T02:40:26.386Z,97419.09
2024-03-13T02:40:58.325Z,97413.72
2024-03-13T02:41:30.159Z,97422.25
2024-03-13T02:42:02.777Z,97422.00
2024-03-13T02:42:34.640Z,97421.22
2024-03-13T02:43:06.471Z,97421.69
2024-03-13T02:43:41.465Z,97412.66
2024-03-13T02:44:13.262Z,97418.25
2024-03-13T02:44:45.305Z,97408.59
2024-03-13T02:45:17.725Z,97421.13
2024-03-13T02:45:49.933Z,97417.41
2024-03-13T02:46:21.806Z,97411.44
2024-03-13T02:46:55.286Z,97421.22
2024-03-13T02:47:27.156Z,97414.09
2024-03-13T02:47:59.240Z,97421.38
2024-03-13T02:48:31.064Z,97425.91
2024-03-13T02:49:02.956Z,97417.56
2024-03-13T02:49:37.065Z,97420.44
2024-03-13T02:50:13.005Z,97418.41
2024-03-13T02:50:46.093Z,97418.31
2024-03-13T02:51:17.966Z,97415.06
2024-03-13T02:51:49.833Z,97414.72
2024-03-13T02:52:21.981Z,97416.75
2024-03-13T02:52:53.893Z,97410.91
2024-03-13T02:53:25.772Z,97421.50
2024-03-13T02:53:58.279Z,97422.34
2024-03-13T02:54:30.131Z,97405.66
2024-03-13T02:55:02.010Z,97421.63
2024-03-13T02:55:34.440Z,97412.44
2024-03-13T02:56:09.061Z,97421.97
2024-03-13T02:56:40.884Z,97412.81
2024-03-13T02:57:12.722Z,97417.94
2024-03-13T02:57:46.028Z,97416.75
2024-03-13T02:58:17.956Z,97418.75
2024-03-13T02:58:50.484Z,97423.88
2024-03-13T02:59:22.311Z,97420.56
2024-03-13T02:59:54.157Z,97423.75
2024-03-13T03:00:26.967Z,97426.25
2024-03-13T03:00:59.991Z,97421.84
2024-03-13T03:01:32.006Z,97426.41
2024-03-13T03:02:07.232Z,97421.50
2024-03-13T03:02:41.216Z,97427.94
2024-03-13T03:03:14.489Z,97425.31
2024-03-13T03:03:46.461Z,97430.56
2024-03-13T03:04:19.982Z,97427.69
2024-03-13T03:04:52.289Z,97421.84
2024-03-13T03:05:25.424Z,97422.56
2024-03-13T03:05:57.868Z,97412.69
2024-03-13T03:06:29.697Z,97428.53
2024-03-13T03:07:02.237Z,97427.34
2024-03-13T03:07:35.164Z,97424.50
2024-03-13T03:08:08.276Z,97423.66
2024-03-13T03:08:43.222Z,97426.38
2024-03-13T03:09:15.051Z,97426.84
2024-03-13T03:09:46.894Z,97418.06
2024-03-13T03:10:19.019Z,97420.91
2024-03-13T03:10:51.723Z,97425.56
2024-03-13T03:11:26.754Z,97415.75
2024-03-13T03:11:58.627Z,97428.28
2024-03-13T03:12:30.487Z,97422.22
2024-03-13T03:13:02.354Z,97425.56
2024-03-13T03:13:34.432Z,97431.41
2024-03-13T03:14:06.435Z,97418.44
2024-03-13T03:14:38.331Z,97414.97
2024-03-13T03:15:13.244Z,97417.69
2024-03-13T03:15:45.813Z,97418.53
2024-03-13T03:16:19.475Z,97419.34
2024-03-13T03:16:51.439Z,97423.41
2024-03-13T03:17:23.801Z,97419.47
2024-03-13T03:17:55.804Z,97422.59
2024-03-13T03:18:27.772Z,97416.97
2024-03-13T03:19:01.096Z,97423.19
2024-03-13T03:19:35.429Z,97420.09
2024-03-13T03:20:07.921Z,97430.69
2024-03-13T03:20:41.114Z,97424.75
2024-03-13T03:21:14.202Z,97419.84
2024-03-13T03:21:46.092Z,97423.44
2024-03-13T03:22:20.750Z,97416.53
2024-03-13T03:22:52.650Z,97422.84
2024-03-13T03:23:24.477Z,97429.47
2024-03-13T03:23:58.792Z,97423.78
2024-03-13T03:24:33.423Z,97419.84
2024-03-13T03:25:06.869Z,97408.91
2024-03-13T03:25:39.106Z,97433.56
2024-03-13T03:26:17.702Z,97421.53
2024-03-13T03:26:49.538Z,97427.38
2024-03-13T03:27:21.401Z,97425.59
2024-03-13T03:27:53.261Z,97419.25
2024-03-13T03:28:25.154Z,97422.56
2024-03-13T03:28:59.896Z,97427.69
2024-03-13T03:29:31.700Z,97424.13
2024-03-13T03:30:05.008Z,97426.19
2024-03-13T03:30:42.857Z,97423.88
2024-03-13T03:31:14.915Z,97427.47
2024-03-13T03:31:46.766Z,97425.91
2024-03-13T03:32:18.855Z,97430.44
2024-03-13T03:32:50.811Z,97428.66
2024-03-13T03:33:22.666Z,97433.78
2024-03-13T03:33:54.548Z,97431.97
2024-03-13T03:34:26.573Z,97434.72
2024-03-13T03:34:58.457Z,97431.63
2024-03-13T03:35:30.698Z,97436.03
2024-03-13T03:36:03.007Z,97438.97
2024-03-13T03:36:34.841Z,97423.06
2024-03-13T03:37:07.208Z,97432.09
2024-03-13T03:37:39.445Z,97430.06
2024-03-13T03:38:11.407Z,97437.81
2024-03-13T03:38:43.215Z,97429.72
2024-03-13T03:39:16.336Z,97428.72
2024-03-13T03:39:49.490Z,97433.66
2024-03-13T03:40:24.385Z,97428.75
2024-03-13T03:40:56.475Z,97434.00
2024-03-13T03:41:28.337Z,97429.97
2024-03-13T03:42:00.228Z,97430.19
2024-03-13T03:42:32.428Z,97444.84
2024-03-13T03:43:05.560Z,97435.91
2024-03-13T03:43:38.658Z,97432.81
2024-03-13T03:44:12.501Z,97429.13
2024-03-13T03:44:44.313Z,97432.56
2024-03-13T03:45:18.053Z,97434.00
2024-03-13T03:45:51.054Z,97430.19
2024-03-13T03:46:22.955Z,97440.56
2024-03-13T03:46:54.799Z,97430.47
2024-03-13T03:47:26.660Z,97431.16
2024-03-13T03:48:04.785Z,97429.97
2024-03-13T03:48:42.690Z,97429.47
2024-03-13T03:49:14.583Z,97418.75
2024-03-13T03:49:46.416Z,97427.09
2024-03-13T03:50:18.444Z,97428.16
2024-03-13T03:50:50.295Z,97423.06
2024-03-13T03:51:22.097Z,97426.88
2024-03-13T03:51:54.028Z,97428.31
2024-03-13T03:52:25.938Z,97425.00
2024-03-13T03:52:57.825Z,97432.97
2024-03-13T03:53:29.685Z,97425.94
2024-03-13T03:54:02.044Z,97423.69
2024-03-13T03:54:35.603Z,97431.78
2024-03-13T03:55:07.836Z,97429.38
2024-03-13T03:55:39.732Z,97434.28
2024-03-13T03:56:13.757Z,97437.59
2024-03-13T03:56:46.904Z,97439.16
2024-03-13T03:57:20.911Z,97435.09
2024-03-13T03:57:52.773Z,97430.34
2024-03-13T03:58:24.724Z,97431.78
2024-03-13T03:58:56.605Z,97437.84
2024-03-13T03:59:28.534Z,97428.78
2024-03-13T04:00:01.838Z,97436.19
2024-03-13T04:00:36.688Z,97431.91
2024-03-13T04:01:09.058Z,97436.41
2024-03-13T04:01:43.202Z,97430.81
2024-03-13T04:02:17.616Z,97437.25
2024-03-13T04:02:49.576Z,97426.88
2024-03-13T04:03:21.438Z,97432.38
2024-03-13T04:03:53.386Z,97427.34
2024-03-13T04:04:27.427Z,97434.03
2024-03-13T04:04:59.375Z,97432.13
2024-03-13T04:05:31.775Z,97434.16
2024-03-13T04:06:04.744Z,97435.94
2024-03-13T04:06:36.595Z,97430.97
2024-03-13T04:07:09.317Z,97429.84
2024-03-13T04:07:41.292Z,97434.03
2024-03-13T04:08:15.431Z,97423.31
2024-03-13T04:08:49.065Z,97425.56
2024-03-13T04:09:21.596Z,97430.09
2024-03-13T04:09:53.706Z,97425.72
2024-03-13T04:10:25.714Z,97437.97
2024-03-13T04:10:57.694Z,97437.72
2024-03-13T04:11:30.609Z,97428.47
2024-03-13T04:12:02.511Z,97435.47
2024-03-13T04:12:35.141Z,97429.88
2024-03-13T04:13:07.116Z,97431.78
2024-03-13T04:13:42.004Z,97425.09
2024-03-13T04:14:13.958Z,97421.16
2024-03-13T04:14:45.804Z,97428.78
2024-03-13T04:15:22.526Z,97424.75
2024-03-13T04:15:54.564Z,97423.09
2024-03-13T04:16:26.909Z,97418.91
2024-03-13T04:16:58.827Z,97420.94
2024-03-13T04:17:30.635Z,97424.25
2024-03-13T04:18:04.809Z,97425.34
2024-03-13T04:18:37.230Z,97429.75
2024-03-13T04:19:11.874Z,97417.22
2024-03-13T04:19:43.850Z,97421.28
2024-03-13T04:20:20.067Z,97425.81
2024-03-13T04:20:52.043Z,97426.75
2024-03-13T04:21:23.868Z,97424.75
2024-03-13T04:21:55.770Z,97428.91
2024-03-13T04:22:28.598Z,97421.88
2024-03-13T04:23:01.419Z,97424.16
2024-03-13T04:23:33.268Z,97422.84
2024-03-13T04:24:06.341Z,97422.50
2024-03-13T04:24:38.188Z,97421.44
2024-03-13T04:25:10.072Z,97419.41
2024-03-13T04:25:42.077Z,97418.69
2024-03-13T04:26:16.192Z,97425.09
2024-03-13T04:26:48.014Z,97420.84
2024-03-13T04:27:21.104Z,97423.81
2024-03-13T04:27:56.142Z,97422.75
2024-03-13T04:28:28.326Z,97424.16
2024-03-13T04:29:00.238Z,97421.41
2024-03-13T04:29:38.685Z,97420.94
2024-03-13T04:30:15.480Z,97420.47
2024-03-13T04:30:50.013Z,97428.34
2024-03-13T04:31:21.910Z,97430.47
2024-03-13T04:31:53.809Z,97420.47
2024-03-13T04:32:26.486Z,97425.72
2024-03-13T04:32:59.294Z,97422.25
2024-03-13T04:33:31.194Z,97427.63
2024-03-13T04:34:03.084Z,97421.31
2024-03-13T04:34:35.016Z,97429.28
2024-03-13T04:35:07.193Z,97418.81
2024-03-13T04:35:39.039Z,97420.69
2024-03-13T04:36:10.893Z,97414.88
2024-03-13T04:36:42.736Z,97425.56
2024-03-13T04:37:16.554Z,97424.28
2024-03-13T04:37:48.501Z,97418.44
2024-03-13T04:38:20.366Z,97419.53
2024-03-13T04:38:52.453Z,97423.91
2024-03-13T04:39:24.367Z,97421.31
2024-03-13T04:39:58.591Z,97424.06
2024-03-13T04:40:30.491Z,97423.09
2024-03-13T04:41:02.338Z,97417.97
2024-03-13T04:41:34.804Z,97417.38
2024-03-13T04:42:06.647Z,97419.16
2024-03-13T04:42:38.505Z,97416.66
2024-03-13T04:43:10.437Z,97410.50
2024-03-13T04:43:42.352Z,97418.09
2024-03-13T04:44:14.173Z,97418.91
2024-03-13T04:44:46.018Z,97418.81
2024-03-13T04:45:17.826Z,97417.75
2024-03-13T04:45:49.729Z,97427.38
2024-03-13T04:46:21.877Z,97410.94
2024-03-13T04:46:53.711Z,97423.59
2024-03-13T04:47:26.161Z,97420.38
2024-03-13T04:47:58.068Z,97422.59
2024-03-13T04:48:29.912Z,97418.69
2024-03-13T04:49:01.768Z,97420.81
2024-03-13T04:49:33.654Z,97419.19
2024-03-13T04:50:05.794Z,97419.63
2024-03-13T04:50:37.952Z,97415.13
2024-03-13T04:51:10.354Z,97417.50
2024-03-13T04:51:42.197Z,97417.63
2024-03-13T04:52:14.098Z,97412.50
2024-03-13T04:52:46.641Z,97415.59
2024-03-13T04:53:24.084Z,97420.59
2024-03-13T04:53:55.914Z,97423.09
2024-03-13T04:54:27.736Z,97418.69
2024-03-13T04:55:00.377Z,97421.56
2024-03-13T04:55:32.330Z,97425.81
2024-03-13T04:56:07.312Z,97429.63
2024-03-13T04:56:39.589Z,97421.56
2024-03-13T04:57:11.444Z,97417.63
2024-03-13T04:57:43.321Z,97419.41
2024-03-13T04:58:15.179Z,97416.69
2024-03-13T04:58:47.054Z,97421.44
2024-03-13T04:59:18.874Z,97414.75
2024-03-13T04:59:51.626Z,97430.47
2024-03-13T05:00:23.506Z,97419.16
2024-03-13T05:00:55.388Z,97425.59
2024-03-13T05:01:27.375Z,97423.56
2024-03-13T05:01:59.456Z,97416.66
2024-03-13T05:02:31.373Z,97417.63
2024-03-13T05:03:04.575Z,97417.84
2024-03-13T05:03:36.983Z,97420.13
2024-03-13T05:04:08.964Z,97424.50
2024-03-13T05:04:40.777Z,97419.88
2024-03-13T05:05:18.277Z,97420.00
2024-03-13T05:05:50.103Z,97426.66
2024-03-13T05:06:22.249Z,97429.06
2024-03-13T05:06:57.932Z,97419.41
2024-03-13T05:07:29.790Z,97418.19
2024-03-13T05:08:03.249Z,97429.50
2024-03-13T05:08:35.307Z,97425.38
2024-03-13T05:09:08.173Z,97420.59
2024-03-13T05:09:42.816Z,97430.22
2024-03-13T05:10:18.677Z,97422.16
2024-03-13T05:10:51.220Z,97434.06
2024-03-13T05:11:23.119Z,97435.56
2024-03-13T05:11:54.985Z,97425.22
2024-03-13T05:12:27.666Z,97429.78
2024-03-13T05:12:59.689Z,97426.53
2024-03-13T05:13:32.804Z,97427.38
2024-03-13T05:14:04.700Z,97428.31
2024-03-13T05:14:36.539Z,97429.28
2024-03-13T05:15:09.780Z,97438.69
2024-03-13T05:15:41.652Z,97429.16
2024-03-13T05:16:14.395Z,97427.50
2024-03-13T05:16:46.582Z,97436.69
2024-03-13T05:17:18.421Z,97432.84
2024-03-13T05:17:50.967Z,97442.97
2024-03-13T05:18:23.003Z,97436.19
2024-03-13T05:18:54.877Z,97439.03
2024-03-13T05:19:26.740Z,97432.38
2024-03-13T05:19:59.671Z,97443.69
2024-03-13T05:20:31.542Z,97430.47
2024-03-13T05:21:03.343Z,97434.91
2024-03-13T05:21:35.193Z,97433.34
2024-03-13T05:22:07.130Z,97447.97
2024-03-13T05:22:39.025Z,97436.69
2024-03-13T05:23:10.904Z,97449.28
2024-03-13T05:23:42.734Z,97450.81
2024-03-13T05:24:17.415Z,97451.41
2024-03-13T05:24:50.849Z,97439.63
2024-03-13T05:25:25.588Z,97447.25
2024-03-13T05:25:57.485Z,97447.25
2024-03-13T05:26:29.841Z,97447.38
2024-03-13T05:27:01.658Z,97447.38
2024-03-13T05:27:33.933Z,97448.31
2024-03-13T05:28:05.945Z,97450.13
2024-03-13T05:28:38.268Z,97451.53
2024-03-13T05:29:10.809Z,97460.09
2024-03-13T05:29:42.756Z,97455.09
2024-03-13T05:30:14.686Z,97458.06
2024-03-13T05:30:46.542Z,97454.28
2024-03-13T05:31:18.386Z,97453.88
2024-03-13T05:31:51.128Z,97463.44
2024-03-13T05:32:23.036Z,97455.47
2024-03-13T05:32:54.955Z,97461.06
2024-03-13T05:33:26.836Z,97456.66
2024-03-13T05:33:58.689Z,97465.19
2024-03-13T05:34:30.609Z,97458.53
2024-03-13T05:35:02.446Z,97458.19
2024-03-13T05:35:34.463Z,97462.97
2024-03-13T05:36:08.246Z,97465.47
2024-03-13T05:36:40.111Z,97466.75
2024-03-13T05:37:13.317Z,97459.97
2024-03-13T05:37:45.266Z,97457.00
2024-03-13T05:38:18.090Z,97464.84
2024-03-13T05:38:50.125Z,97465.81
2024-03-13T05:39:22.152Z,97465.69
2024-03-13T05:39:54.130Z,97464.47
2024-03-13T05:40:26.063Z,97464.03
2024-03-13T05:40:59.180Z,97466.88
2024-03-13T05:41:31.016Z,97467.47
2024-03-13T05:42:02.884Z,97460.69
2024-03-13T05:42:34.929Z,97457.94
2024-03-13T05:43:06.831Z,97456.66
2024-03-13T05:43:39.135Z,97464.84
2024-03-13T05:44:11.394Z,97468.78
2024-03-13T05:44:43.309Z,97462.13
2024-03-13T05:45:15.399Z,97461.19
2024-03-13T05:45:47.721Z,97462.47
2024-03-13T05:46:19.665Z,97466.97
2024-03-13T05:46:52.759Z,97464.63
2024-03-13T05:47:24.588Z,97470.47
2024-03-13T05:47:56.482Z,97465.81
2024-03-13T05:48:28.569Z,97465.34
2024-03-13T05:49:00.419Z,97468.56
2024-03-13T05:49:32.282Z,97468.31
2024-03-13T05:50:04.571Z,97473.66
2024-03-13T05:50:36.821Z,97466.50
2024-03-13T05:51:09.984Z,97464.50
2024-03-13T05:51:42.255Z,97467.13
2024-03-13T05:52:14.101Z,97474.16
2024-03-13T05:52:49.137Z,97470.59
2024-03-13T05:53:21.455Z,97470.72
2024-03-13T05:53:53.273Z,97469.03
2024-03-13T05:54:25.362Z,97474.25
2024-03-13T05:54:57.420Z,97469.25
2024-03-13T05:55:29.276Z,97478.31
2024-03-13T05:56:01.695Z,97475.44
2024-03-13T05:56:33.549Z,97469.84
2024-03-13T05:57:05.378Z,97477.25
2024-03-13T05:57:39.734Z,97482.34
2024-03-13T05:58:12.099Z,97474.34
2024-03-13T05:58:43.972Z,97470.19
2024-03-13T05:59:15.780Z,97480.31
2024-03-13T05:59:47.760Z,97481.66
2024-03-13T06:00:20.856Z,97484.50
2024-03-13T06:00:53.847Z,97479.75
2024-03-13T06:01:28.433Z,97478.44
2024-03-13T06:02:01.226Z,97487.00
2024-03-13T06:02:33.626Z,97483.53
2024-03-13T06:03:05.598Z,97484.84
2024-03-13T06:03:37.714Z,97491.66
2024-03-13T06:04:09.591Z,97483.66
2024-03-13T06:04:41.523Z,97485.22
2024-03-13T06:05:15.806Z,97494.00
2024-03-13T06:05:47.677Z,97488.75
2024-03-13T06:06:19.525Z,97492.09
2024-03-13T06:06:52.622Z,97486.88
2024-03-13T06:07:24.540Z,97495.06
2024-03-13T06:07:59.763Z,97489.38
2024-03-13T06:08:33.117Z,97494.59
2024-03-13T06:09:04.961Z,97491.84
2024-03-13T06:09:39.694Z,97496.16
2024-03-13T06:10:12.023Z,97493.66
2024-03-13T06:10:44.206Z,97498.19
2024-03-13T06:11:19.948Z,97493.53
2024-03-13T06:11:51.873Z,97491.34
2024-03-13T06:12:23.770Z,97492.91
2024-03-13T06:12:55.656Z,97492.31
2024-03-13T06:13:27.617Z,97496.47
2024-03-13T06:14:00.419Z,97491.38
2024-03-13T06:14:32.308Z,97496.97
2024-03-13T06:15:08.041Z,97494.81
2024-03-13T06:15:39.856Z,97498.97
2024-03-13T06:16:11.768Z,97500.88
2024-03-13T06:16:43.724Z,97498.75
2024-03-13T06:17:15.564Z,97495.47
2024-03-13T06:17:47.726Z,97493.72
2024-03-13T06:18:19.762Z,97496.56
2024-03-13T06:18:51.899Z,97499.53
2024-03-13T06:19:24.302Z,97498.56
2024-03-13T06:19:56.199Z,97500.25
2024-03-13T06:20:28.037Z,97497.09
2024-03-13T06:20:59.882Z,97504.38
2024-03-13T06:21:31.917Z,97501.75
2024-03-13T06:22:03.794Z,97502.34
2024-03-13T06:22:37.033Z,97499.59
2024-03-13T06:23:09.002Z,97497.53
2024-03-13T06:23:49.434Z,97503.03
2024-03-13T06:24:31.519Z,97503.59
2024-03-13T06:25:07.589Z,97503.59
2024-03-13T06:25:40.408Z,97500.00
2024-03-13T06:26:18.070Z,97500.31
2024-03-13T06:26:51.787Z,97485.50
2024-03-13T06:27:28.634Z,97495.78
2024-03-13T06:28:23.115Z,97489.72
2024-03-13T06:29:14.209Z,97496.00
2024-03-13T06:29:59.358Z,97493.63
2024-03-13T06:30:32.337Z,97489.91
2024-03-13T06:31:04.461Z,97499.63
2024-03-13T06:31:42.125Z,97490.75
2024-03-13T06:32:15.742Z,97490.09
2024-03-13T06:32:47.598Z,97492.13
2024-03-13T06:33:19.509Z,97497.25
2024-03-13T06:33:53.406Z,97497.44